sensor_id;sensor_type;location;lat;lon;timestamp;pressure;altitude;pressure_sealevel;temperature;humidity
33859;BME280;20156;47.486;12.074;2023-04-04T00:01:37;96203.09;;;0.93;100.00
33859;BME280;20156;47.486;12.074;2023-04-04T00:04:03;96201.94;;;0.85;100.00
33859;BME280;20156;47.486;12.074;2023-04-04T00:06:28;96198.09;;;0.80;100.00
33859;BME280;20156;47.486;12.074;2023-04-04T00:08:54;96198.09;;;0.80;100.00
33859;BME280;20156;47.486;12.074;2023-04-04T00:11:19;96189.03;;;0.76;100.00
33859;BME280;20156;47.486;12.074;2023-04-04T00:13:46;96195.53;;;0.80;100.00
33859;BME280;20156;47.486;12.074;2023-04-04T00:16:11;96199.50;;;0.73;100.00
33859;BME280;20156;47.486;12.074;2023-04-04T00:18:37;96196.59;;;0.77;100.00
33859;BME280;20156;47.486;12.074;2023-04-04T00:21:03;96196.38;;;0.69;100.00
33859;BME280;20156;47.486;12.074;2023-04-04T00:23:28;96199.88;;;0.68;100.00
33859;BME280;20156;47.486;12.074;2023-04-04T00:25:54;96193.34;;;0.64;100.00
33859;BME280;20156;47.486;12.074;2023-04-04T00:28:20;96195.56;;;0.69;100.00
33859;BME280;20156;47.486;12.074;2023-04-04T00:30:46;96193.00;;;0.69;100.00
33859;BME280;20156;47.486;12.074;2023-04-04T00:33:12;96186.25;;;0.68;100.00
33859;BME280;20156;47.486;12.074;2023-04-04T00:35:38;96188.91;;;0.66;100.00
33859;BME280;20156;47.486;12.074;2023-04-04T00:38:04;96191.47;;;0.66;100.00
33859;BME280;20156;47.486;12.074;2023-04-04T00:40:29;96190.19;;;0.60;100.00
33859;BME280;20156;47.486;12.074;2023-04-04T00:42:55;96185.41;;;0.67;100.00
33859;BME280;20156;47.486;12.074;2023-04-04T00:45:21;96188.91;;;0.66;100.00
33859;BME280;20156;47.486;12.074;2023-04-04T00:47:48;96185.78;;;0.74;100.00
33859;BME280;20156;47.486;12.074;2023-04-04T00:50:14;96185.09;;;0.60;100.00
33859;BME280;20156;47.486;12.074;2023-04-04T00:52:39;96182.31;;;0.52;100.00
33859;BME280;20156;47.486;12.074;2023-04-04T00:55:05;96179.25;;;0.47;100.00
33859;BME280;20156;47.486;12.074;2023-04-04T00:57:32;96179.97;;;0.38;100.00
33859;BME280;20156;47.486;12.074;2023-04-04T00:59:59;96170.66;;;0.15;100.00
33859;BME280;20156;47.486;12.074;2023-04-04T01:02:27;96174.03;;;0.15;100.00
33859;BME280;20156;47.486;12.074;2023-04-04T01:04:52;96162.97;;;0.15;100.00
33859;BME280;20156;47.486;12.074;2023-04-04T01:07:18;96158.91;;;0.12;100.00
33859;BME280;20156;47.486;12.074;2023-04-04T01:09:43;96168.09;;;0.15;100.00
33859;BME280;20156;47.486;12.074;2023-04-04T01:12:10;96161.84;;;0.19;100.00
33859;BME280;20156;47.486;12.074;2023-04-04T01:14:35;96166.34;;;0.15;100.00
33859;BME280;20156;47.486;12.074;2023-04-04T01:17:01;96155.88;;;-0.04;100.00
33859;BME280;20156;47.486;12.074;2023-04-04T01:19:43;96148.34;;;-0.17;100.00
33859;BME280;20156;47.486;12.074;2023-04-04T01:22:11;96146.97;;;0.02;100.00
33859;BME280;20156;47.486;12.074;2023-04-04T01:24:40;96141.22;;;-0.02;100.00
33859;BME280;20156;47.486;12.074;2023-04-04T01:27:07;96145.06;;;-0.08;100.00
33859;BME280;20156;47.486;12.074;2023-04-04T01:29:32;96141.97;;;0.00;100.00
33859;BME280;20156;47.486;12.074;2023-04-04T01:32:18;96127.53;;;-0.01;100.00
33859;BME280;20156;47.486;12.074;2023-04-04T01:34:51;96126.63;;;0.00;100.00
33859;BME280;20156;47.486;12.074;2023-04-04T01:37:35;96126.25;;;0.05;100.00
33859;BME280;20156;47.486;12.074;2023-04-04T01:40:19;96127.19;;;0.15;100.00
33859;BME280;20156;47.486;12.074;2023-04-04T01:42:46;96134.63;;;0.07;100.00
33859;BME280;20156;47.486;12.074;2023-04-04T01:45:13;96123.13;;;0.12;100.00
33859;BME280;20156;47.486;12.074;2023-04-04T01:47:39;96124.28;;;0.08;100.00
33859;BME280;20156;47.486;12.074;2023-04-04T01:50:10;96118.13;;;0.22;100.00
33859;BME280;20156;47.486;12.074;2023-04-04T01:52:36;96119.50;;;0.15;100.00
33859;BME280;20156;47.486;12.074;2023-04-04T01:55:02;96128.00;;;0.15;100.00
33859;BME280;20156;47.486;12.074;2023-04-04T01:57:28;96135.78;;;0.25;100.00
33859;BME280;20156;47.486;12.074;2023-04-04T01:59:54;96131.47;;;0.14;100.00
33859;BME280;20156;47.486;12.074;2023-04-04T02:02:19;96126.84;;;0.08;100.00
33859;BME280;20156;47.486;12.074;2023-04-04T02:04:45;96123.94;;;0.24;100.00
33859;BME280;20156;47.486;12.074;2023-04-04T02:07:10;96125.88;;;0.32;100.00
33859;BME280;20156;47.486;12.074;2023-04-04T02:09:36;96125.56;;;0.36;100.00
33859;BME280;20156;47.486;12.074;2023-04-04T02:12:02;96130.31;;;0.41;100.00
33859;BME280;20156;47.486;12.074;2023-04-04T02:14:27;96135.56;;;0.28;100.00
33859;BME280;20156;47.486;12.074;2023-04-04T02:16:53;96115.31;;;0.25;100.00
33859;BME280;20156;47.486;12.074;2023-04-04T02:19:18;96117.88;;;0.25;100.00
33859;BME280;20156;47.486;12.074;2023-04-04T02:21:44;96110.44;;;0.22;100.00
33859;BME280;20156;47.486;12.074;2023-04-04T02:24:09;96115.00;;;0.18;100.00
33859;BME280;20156;47.486;12.074;2023-04-04T02:26:35;96110.91;;;0.16;100.00
33859;BME280;20156;47.486;12.074;2023-04-04T02:29:00;96107.06;;;0.21;100.00
33859;BME280;20156;47.486;12.074;2023-04-04T02:31:27;96112.41;;;0.29;100.00
33859;BME280;20156;47.486;12.074;2023-04-04T02:33:52;96107.78;;;0.35;100.00
33859;BME280;20156;47.486;12.074;2023-04-04T02:36:18;96107.41;;;0.39;100.00
33859;BME280;20156;47.486;12.074;2023-04-04T02:38:43;96114.47;;;0.47;100.00
33859;BME280;20156;47.486;12.074;2023-04-04T02:41:08;96123.91;;;0.57;100.00
33859;BME280;20156;47.486;12.074;2023-04-04T02:43:34;96128.53;;;0.64;100.00
33859;BME280;20156;47.486;12.074;2023-04-04T02:46:00;96121.09;;;0.60;100.00
33859;BME280;20156;47.486;12.074;2023-04-04T02:48:26;96115.28;;;0.47;100.00
33859;BME280;20156;47.486;12.074;2023-04-04T02:50:51;96109.59;;;0.33;100.00
33859;BME280;20156;47.486;12.074;2023-04-04T02:53:17;96104.63;;;0.42;100.00
33859;BME280;20156;47.486;12.074;2023-04-04T02:55:42;96101.25;;;0.42;100.00
33859;BME280;20156;47.486;12.074;2023-04-04T02:58:08;96105.75;;;0.49;100.00
33859;BME280;20156;47.486;12.074;2023-04-04T03:00:33;96098.56;;;0.54;100.00
33859;BME280;20156;47.486;12.074;2023-04-04T03:02:59;96098.06;;;0.49;100.00
33859;BME280;20156;47.486;12.074;2023-04-04T03:05:25;96081.59;;;0.42;100.00
33859;BME280;20156;47.486;12.074;2023-04-04T03:07:55;96077.97;;;0.45;100.00
33859;BME280;20156;47.486;12.074;2023-04-04T03:10:24;96081.22;;;0.47;100.00
33859;BME280;20156;47.486;12.074;2023-04-04T03:12:50;96081.44;;;0.55;100.00
33859;BME280;20156;47.486;12.074;2023-04-04T03:15:16;96080.03;;;0.62;100.00
33859;BME280;20156;47.486;12.074;2023-04-04T03:17:41;96098.88;;;0.50;100.00
33859;BME280;20156;47.486;12.074;2023-04-04T03:20:08;96102.09;;;0.74;100.00
33859;BME280;20156;47.486;12.074;2023-04-04T03:22:33;96110.34;;;0.78;100.00
33859;BME280;20156;47.486;12.074;2023-04-04T03:24:59;96110.47;;;0.76;100.00
33859;BME280;20156;47.486;12.074;2023-04-04T03:27:24;96113.84;;;0.77;100.00
33859;BME280;20156;47.486;12.074;2023-04-04T03:29:50;96101.88;;;0.66;100.00
33859;BME280;20156;47.486;12.074;2023-04-04T03:32:15;96092.75;;;0.52;100.00
33859;BME280;20156;47.486;12.074;2023-04-04T03:34:42;96092.50;;;0.55;100.00
33859;BME280;20156;47.486;12.074;2023-04-04T03:37:09;96089.69;;;0.58;100.00
33859;BME280;20156;47.486;12.074;2023-04-04T03:39:34;96093.06;;;0.59;100.00
33859;BME280;20156;47.486;12.074;2023-04-04T03:42:00;96105.03;;;0.70;100.00
33859;BME280;20156;47.486;12.074;2023-04-04T03:44:25;96105.03;;;0.58;100.00
33859;BME280;20156;47.486;12.074;2023-04-04T03:46:50;96107.16;;;0.53;100.00
33859;BME280;20156;47.486;12.074;2023-04-04T03:49:16;96114.34;;;0.59;100.00
33859;BME280;20156;47.486;12.074;2023-04-04T03:51:41;96115.97;;;0.60;100.00
33859;BME280;20156;47.486;12.074;2023-04-04T03:54:07;96118.22;;;0.54;100.00
33859;BME280;20156;47.486;12.074;2023-04-04T03:56:32;96114.34;;;0.48;100.00
33859;BME280;20156;47.486;12.074;2023-04-04T03:58:58;96117.16;;;0.56;100.00
33859;BME280;20156;47.486;12.074;2023-04-04T04:01:23;96113.16;;;0.64;100.00
33859;BME280;20156;47.486;12.074;2023-04-04T04:03:49;96114.72;;;0.55;100.00
33859;BME280;20156;47.486;12.074;2023-04-04T04:06:14;96106.47;;;0.51;100.00
33859;BME280;20156;47.486;12.074;2023-04-04T04:08:40;96108.28;;;0.60;100.00
33859;BME280;20156;47.486;12.074;2023-04-04T04:11:05;96107.22;;;0.74;100.00
33859;BME280;20156;47.486;12.074;2023-04-04T04:13:33;96118.78;;;0.69;100.00
33859;BME280;20156;47.486;12.074;2023-04-04T04:16:00;96110.16;;;0.70;100.00
33859;BME280;20156;47.486;12.074;2023-04-04T04:18:25;96108.94;;;0.85;100.00
33859;BME280;20156;47.486;12.074;2023-04-04T04:20:58;96118.59;;;0.81;100.00
33859;BME280;20156;47.486;12.074;2023-04-04T04:23:26;96118.00;;;0.89;100.00
33859;BME280;20156;47.486;12.074;2023-04-04T04:25:51;96118.00;;;0.89;100.00
33859;BME280;20156;47.486;12.074;2023-04-04T04:28:16;96119.53;;;0.80;100.00
33859;BME280;20156;47.486;12.074;2023-04-04T04:30:42;96116.94;;;0.92;100.00
33859;BME280;20156;47.486;12.074;2023-04-04T04:33:08;96125.13;;;0.85;100.00
33859;BME280;20156;47.486;12.074;2023-04-04T04:35:37;96119.81;;;0.98;100.00
33859;BME280;20156;47.486;12.074;2023-04-04T04:38:06;96127.72;;;1.06;100.00
33859;BME280;20156;47.486;12.074;2023-04-04T04:40:34;96132.44;;;0.90;100.00
33859;BME280;20156;47.486;12.074;2023-04-04T04:43:00;96134.13;;;0.69;100.00
33859;BME280;20156;47.486;12.074;2023-04-04T04:45:26;96129.59;;;0.61;100.00
33859;BME280;20156;47.486;12.074;2023-04-04T04:47:51;96144.50;;;0.56;100.00
33859;BME280;20156;47.486;12.074;2023-04-04T04:50:17;96143.69;;;0.55;100.00
33859;BME280;20156;47.486;12.074;2023-04-04T04:52:43;96146.47;;;0.52;100.00
33859;BME280;20156;47.486;12.074;2023-04-04T04:55:09;96154.28;;;0.51;100.00
33859;BME280;20156;47.486;12.074;2023-04-04T04:57:36;96153.69;;;0.58;100.00
33859;BME280;20156;47.486;12.074;2023-04-04T05:00:03;96147.63;;;0.59;100.00
33859;BME280;20156;47.486;12.074;2023-04-04T05:02:29;96171.84;;;0.55;100.00
33859;BME280;20156;47.486;12.074;2023-04-04T05:04:55;96159.97;;;0.43;100.00
33859;BME280;20156;47.486;12.074;2023-04-04T05:07:21;96164.63;;;0.38;100.00
33859;BME280;20156;47.486;12.074;2023-04-04T05:09:46;96168.56;;;0.42;100.00
33859;BME280;20156;47.486;12.074;2023-04-04T05:12:12;96161.13;;;0.39;100.00
33859;BME280;20156;47.486;12.074;2023-04-04T05:14:37;96169.50;;;0.41;100.00
33859;BME280;20156;47.486;12.074;2023-04-04T05:17:03;96166.47;;;0.58;100.00
33859;BME280;20156;47.486;12.074;2023-04-04T05:19:28;96178.00;;;0.42;100.00
33859;BME280;20156;47.486;12.074;2023-04-04T05:21:54;96166.94;;;0.41;100.00
33859;BME280;20156;47.486;12.074;2023-04-04T05:24:19;96173.94;;;0.39;100.00
33859;BME280;20156;47.486;12.074;2023-04-04T05:26:47;96177.63;;;0.46;100.00
33859;BME280;20156;47.486;12.074;2023-04-04T05:29:12;96178.25;;;0.39;100.00
33859;BME280;20156;47.486;12.074;2023-04-04T05:31:37;96179.97;;;0.38;100.00
33859;BME280;20156;47.486;12.074;2023-04-04T05:34:03;96182.53;;;0.49;100.00
33859;BME280;20156;47.486;12.074;2023-04-04T05:36:36;96182.53;;;0.38;100.00
33859;BME280;20156;47.486;12.074;2023-04-04T05:39:02;96183.00;;;0.43;100.00
33859;BME280;20156;47.486;12.074;2023-04-04T05:41:30;96191.03;;;0.39;100.00
33859;BME280;20156;47.486;12.074;2023-04-04T05:43:56;96183.25;;;0.40;100.00
33859;BME280;20156;47.486;12.074;2023-04-04T05:46:22;96188.00;;;0.56;100.00
33859;BME280;20156;47.486;12.074;2023-04-04T05:48:47;96182.88;;;0.56;100.00
33859;BME280;20156;47.486;12.074;2023-04-04T05:51:14;96188.00;;;0.45;100.00
33859;BME280;20156;47.486;12.074;2023-04-04T05:53:40;96192.06;;;0.25;100.00
33859;BME280;20156;47.486;12.074;2023-04-04T05:56:05;96195.44;;;0.37;100.00
33859;BME280;20156;47.486;12.074;2023-04-04T05:58:31;96191.03;;;0.39;100.00
33859;BME280;20156;47.486;12.074;2023-04-04T06:00:56;96200.44;;;0.60;100.00
33859;BME280;20156;47.486;12.074;2023-04-04T06:03:21;96191.94;;;0.49;100.00
33859;BME280;20156;47.486;12.074;2023-04-04T06:05:51;96196.38;;;0.58;100.00
33859;BME280;20156;47.486;12.074;2023-04-04T06:08:17;96193.56;;;0.72;100.00
33859;BME280;20156;47.486;12.074;2023-04-04T06:10:42;96197.06;;;0.60;100.00
33859;BME280;20156;47.486;12.074;2023-04-04T06:13:08;96193.13;;;0.56;100.00
33859;BME280;20156;47.486;12.074;2023-04-04T06:15:33;96191.00;;;0.72;100.00
33859;BME280;20156;47.486;12.074;2023-04-04T06:17:58;96193.66;;;0.82;100.00
33859;BME280;20156;47.486;12.074;2023-04-04T06:20:24;96193.53;;;0.95;100.00
33859;BME280;20156;47.486;12.074;2023-04-04T06:22:50;96188.22;;;0.86;100.00
33859;BME280;20156;47.486;12.074;2023-04-04T06:25:15;96192.53;;;0.75;100.00
33859;BME280;20156;47.486;12.074;2023-04-04T06:27:41;96194.25;;;0.85;100.00
33859;BME280;20156;47.486;12.074;2023-04-04T06:30:07;96183.16;;;0.96;100.00
33859;BME280;20156;47.486;12.074;2023-04-04T06:32:32;96178.31;;;0.82;100.00
33859;BME280;20156;47.486;12.074;2023-04-04T06:34:58;96174.72;;;0.84;100.00
33859;BME280;20156;47.486;12.074;2023-04-04T06:37:23;96169.31;;;0.99;100.00
33859;BME280;20156;47.486;12.074;2023-04-04T06:39:49;96166.72;;;1.10;100.00
33859;BME280;20156;47.486;12.074;2023-04-04T06:42:14;96162.84;;;1.15;100.00
33859;BME280;20156;47.486;12.074;2023-04-04T06:44:39;96157.00;;;1.25;100.00
33859;BME280;20156;47.486;12.074;2023-04-04T06:47:05;96149.44;;;1.23;100.00
33859;BME280;20156;47.486;12.074;2023-04-04T06:49:31;96130.81;;;1.21;100.00
33859;BME280;20156;47.486;12.074;2023-04-04T06:51:58;96135.22;;;1.51;100.00
33859;BME280;20156;47.486;12.074;2023-04-04T06:54:24;96124.06;;;1.83;100.00
33859;BME280;20156;47.486;12.074;2023-04-04T06:56:50;96089.22;;;1.70;100.00
33859;BME280;20156;47.486;12.074;2023-04-04T06:59:16;96086.44;;;1.62;100.00
33859;BME280;20156;47.486;12.074;2023-04-04T07:01:42;96070.25;;;1.62;100.00
33859;BME280;20156;47.486;12.074;2023-04-04T07:04:07;96071.56;;;1.77;100.00
33859;BME280;20156;47.486;12.074;2023-04-04T07:06:33;96073.78;;;2.31;100.00
33859;BME280;20156;47.486;12.074;2023-04-04T07:08:58;96043.75;;;2.13;100.00
33859;BME280;20156;47.486;12.074;2023-04-04T07:11:23;96016.13;;;1.86;100.00
33859;BME280;20156;47.486;12.074;2023-04-04T07:13:49;96006.91;;;2.33;100.00
33859;BME280;20156;47.486;12.074;2023-04-04T07:16:14;95981.97;;;1.85;100.00
33859;BME280;20156;47.486;12.074;2023-04-04T07:18:40;95964.97;;;1.94;100.00
33859;BME280;20156;47.486;12.074;2023-04-04T07:21:05;96004.91;;;2.36;100.00
33859;BME280;20156;47.486;12.074;2023-04-04T07:23:31;96004.63;;;2.30;100.00
33859;BME280;20156;47.486;12.074;2023-04-04T07:25:57;95934.25;;;1.63;100.00
33859;BME280;20156;47.486;12.074;2023-04-04T07:28:22;95919.94;;;1.00;100.00
33859;BME280;20156;47.486;12.074;2023-04-04T07:30:47;95963.59;;;1.40;100.00
33859;BME280;20156;47.486;12.074;2023-04-04T07:33:13;95970.94;;;1.54;100.00
33859;BME280;20156;47.486;12.074;2023-04-04T07:35:38;95970.00;;;1.55;100.00
33859;BME280;20156;47.486;12.074;2023-04-04T07:38:04;95969.00;;;1.46;100.00
33859;BME280;20156;47.486;12.074;2023-04-04T07:40:29;95978.97;;;1.80;100.00
33859;BME280;20156;47.486;12.074;2023-04-04T07:42:56;95961.06;;;1.90;100.00
33859;BME280;20156;47.486;12.074;2023-04-04T07:45:21;95976.41;;;1.70;100.00
33859;BME280;20156;47.486;12.074;2023-04-04T07:47:47;95966.91;;;1.61;100.00
33859;BME280;20156;47.486;12.074;2023-04-04T07:50:14;95950.56;;;1.53;100.00
33859;BME280;20156;47.486;12.074;2023-04-04T07:52:40;95945.53;;;2.01;100.00
33859;BME280;20156;47.486;12.074;2023-04-04T07:55:07;95915.53;;;1.82;100.00
33859;BME280;20156;47.486;12.074;2023-04-04T07:57:37;95899.50;;;1.90;100.00
33859;BME280;20156;47.486;12.074;2023-04-04T08:00:06;95897.09;;;2.27;100.00
33859;BME280;20156;47.486;12.074;2023-04-04T08:02:35;95872.22;;;2.56;100.00
33859;BME280;20156;47.486;12.074;2023-04-04T08:05:01;95874.19;;;2.91;100.00
33859;BME280;20156;47.486;12.074;2023-04-04T08:07:26;95843.97;;;2.66;100.00
33859;BME280;20156;47.486;12.074;2023-04-04T08:09:52;95841.00;;;2.51;100.00
33859;BME280;20156;47.486;12.074;2023-04-04T08:12:17;95837.91;;;2.48;100.00
33859;BME280;20156;47.486;12.074;2023-04-04T08:14:42;95818.03;;;2.50;100.00
33859;BME280;20156;47.486;12.074;2023-04-04T08:17:08;95785.22;;;2.90;100.00
33859;BME280;20156;47.486;12.074;2023-04-04T08:19:33;95768.47;;;3.14;100.00
33859;BME280;20156;47.486;12.074;2023-04-04T08:21:59;95714.81;;;3.28;100.00
33859;BME280;20156;47.486;12.074;2023-04-04T08:24:24;95735.50;;;3.09;100.00
33859;BME280;20156;47.486;12.074;2023-04-04T08:26:49;95674.28;;;3.40;100.00
33859;BME280;20156;47.486;12.074;2023-04-04T08:29:15;95654.81;;;3.38;100.00
33859;BME280;20156;47.486;12.074;2023-04-04T08:31:41;95687.53;;;4.15;100.00
33859;BME280;20156;47.486;12.074;2023-04-04T08:34:06;95664.34;;;4.41;100.00
33859;BME280;20156;47.486;12.074;2023-04-04T08:36:35;95609.53;;;3.88;100.00
33859;BME280;20156;47.486;12.074;2023-04-04T08:39:01;95612.56;;;3.58;100.00
33859;BME280;20156;47.486;12.074;2023-04-04T08:41:28;95630.75;;;3.65;100.00
33859;BME280;20156;47.486;12.074;2023-04-04T08:43:54;95602.50;;;3.99;100.00
33859;BME280;20156;47.486;12.074;2023-04-04T08:46:22;95582.19;;;3.87;100.00
33859;BME280;20156;47.486;12.074;2023-04-04T08:48:49;95560.53;;;3.98;100.00
33859;BME280;20156;47.486;12.074;2023-04-04T08:51:18;95650.59;;;3.72;100.00
33859;BME280;20156;47.486;12.074;2023-04-04T08:53:44;95712.22;;;3.82;100.00
33859;BME280;20156;47.486;12.074;2023-04-04T08:56:11;95694.09;;;4.09;100.00
33859;BME280;20156;47.486;12.074;2023-04-04T08:58:37;95707.50;;;3.95;100.00
33859;BME280;20156;47.486;12.074;2023-04-04T09:01:05;95697.72;;;3.73;100.00
33859;BME280;20156;47.486;12.074;2023-04-04T09:03:32;95702.63;;;4.10;100.00
33859;BME280;20156;47.486;12.074;2023-04-04T09:06:00;95739.81;;;4.15;100.00
33859;BME280;20156;47.486;12.074;2023-04-04T09:08:27;95719.69;;;4.63;100.00
33859;BME280;20156;47.486;12.074;2023-04-04T09:10:53;95700.03;;;4.62;100.00
33859;BME280;20156;47.486;12.074;2023-04-04T09:13:19;95687.09;;;3.93;100.00
33859;BME280;20156;47.486;12.074;2023-04-04T09:15:52;95708.91;;;4.67;100.00
33859;BME280;20156;47.486;12.074;2023-04-04T09:18:19;95687.69;;;4.13;100.00
33859;BME280;20156;47.486;12.074;2023-04-04T09:20:48;95708.47;;;4.80;100.00
33859;BME280;20156;47.486;12.074;2023-04-04T09:23:15;95684.66;;;4.86;100.00
33859;BME280;20156;47.486;12.074;2023-04-04T09:25:51;95678.28;;;4.30;100.00
33859;BME280;20156;47.486;12.074;2023-04-04T09:28:18;95684.41;;;4.29;100.00
33859;BME280;20156;47.486;12.074;2023-04-04T09:30:47;95653.06;;;4.76;100.00
33859;BME280;20156;47.486;12.074;2023-04-04T09:33:14;95637.72;;;4.66;100.00
33859;BME280;20156;47.486;12.074;2023-04-04T09:35:44;95671.63;;;3.93;100.00
33859;BME280;20156;47.486;12.074;2023-04-04T09:38:10;95688.25;;;4.25;100.00
33859;BME280;20156;47.486;12.074;2023-04-04T09:40:36;95682.34;;;4.07;100.00
33859;BME280;20156;47.486;12.074;2023-04-04T09:43:05;95665.72;;;4.61;100.00
33859;BME280;20156;47.486;12.074;2023-04-04T09:45:33;95627.94;;;4.36;100.00
33859;BME280;20156;47.486;12.074;2023-04-04T09:48:00;95645.78;;;4.29;100.00
33859;BME280;20156;47.486;12.074;2023-04-04T09:50:27;95705.16;;;4.53;100.00
33859;BME280;20156;47.486;12.074;2023-04-04T09:52:58;95767.97;;;5.37;100.00
33859;BME280;20156;47.486;12.074;2023-04-04T09:55:36;95642.22;;;4.56;100.00
33859;BME280;20156;47.486;12.074;2023-04-04T09:58:11;95680.25;;;5.37;100.00
33859;BME280;20156;47.486;12.074;2023-04-04T10:00:40;95679.97;;;5.64;100.00
33859;BME280;20156;47.486;12.074;2023-04-04T10:03:07;95640.47;;;5.48;100.00
33859;BME280;20156;47.486;12.074;2023-04-04T10:05:33;95623.75;;;4.85;100.00
33859;BME280;20156;47.486;12.074;2023-04-04T10:07:59;95645.22;;;5.02;100.00
33859;BME280;20156;47.486;12.074;2023-04-04T10:10:26;95644.00;;;5.30;100.00
33859;BME280;20156;47.486;12.074;2023-04-04T10:12:56;95720.63;;;5.62;100.00
33859;BME280;20156;47.486;12.074;2023-04-04T10:15:22;95659.31;;;6.69;100.00
33859;BME280;20156;47.486;12.074;2023-04-04T10:17:49;95598.53;;;5.13;100.00
33859;BME280;20156;47.486;12.074;2023-04-04T10:20:17;95638.19;;;5.85;100.00
33859;BME280;20156;47.486;12.074;2023-04-04T10:22:44;95581.59;;;5.76;100.00
33859;BME280;20156;47.486;12.074;2023-04-04T10:25:10;95572.09;;;5.52;100.00
33859;BME280;20156;47.486;12.074;2023-04-04T10:27:35;95566.78;;;4.88;100.00
33859;BME280;20156;47.486;12.074;2023-04-04T10:30:03;95632.22;;;5.52;100.00
33859;BME280;20156;47.486;12.074;2023-04-04T10:32:32;95610.38;;;6.20;100.00
33859;BME280;20156;47.486;12.074;2023-04-04T10:35:02;95577.41;;;5.18;100.00
33859;BME280;20156;47.486;12.074;2023-04-04T10:37:46;95623.84;;;5.26;100.00
33859;BME280;20156;47.486;12.074;2023-04-04T10:40:16;95579.03;;;5.27;100.00
33859;BME280;20156;47.486;12.074;2023-04-04T10:42:45;95599.34;;;4.39;100.00
33859;BME280;20156;47.486;12.074;2023-04-04T10:45:13;95616.44;;;5.47;100.00
33859;BME280;20156;47.486;12.074;2023-04-04T10:47:41;95649.78;;;5.32;100.00
33859;BME280;20156;47.486;12.074;2023-04-04T10:50:08;95626.91;;;5.54;100.00
33859;BME280;20156;47.486;12.074;2023-04-04T10:52:39;95609.63;;;4.97;100.00
33859;BME280;20156;47.486;12.074;2023-04-04T10:55:07;95554.03;;;5.35;100.00
33859;BME280;20156;47.486;12.074;2023-04-04T10:57:45;95547.84;;;5.85;100.00
33859;BME280;20156;47.486;12.074;2023-04-04T11:00:16;95576.31;;;5.28;100.00
33859;BME280;20156;47.486;12.074;2023-04-04T11:05:33;95598.53;;;5.46;100.00
33859;BME280;20156;47.486;12.074;2023-04-04T11:08:06;95634.84;;;5.93;100.00
33859;BME280;20156;47.486;12.074;2023-04-04T11:10:40;95584.19;;;5.51;100.00
33859;BME280;20156;47.486;12.074;2023-04-04T11:13:12;95629.00;;;5.34;100.00
33859;BME280;20156;47.486;12.074;2023-04-04T11:15:57;95606.41;;;4.37;100.00
33859;BME280;20156;47.486;12.074;2023-04-04T11:20:56;95581.94;;;5.24;100.00
33859;BME280;20156;47.486;12.074;2023-04-04T11:23:21;95551.97;;;5.14;100.00
33859;BME280;20156;47.486;12.074;2023-04-04T11:25:52;95586.38;;;6.03;100.00
33859;BME280;20156;47.486;12.074;2023-04-04T11:42:06;95571.16;;;5.04;100.00
33859;BME280;20156;47.486;12.074;2023-04-04T11:44:39;95594.19;;;5.05;100.00
33859;BME280;20156;47.486;12.074;2023-04-04T11:49:36;95503.44;;;5.42;100.00
33859;BME280;20156;47.486;12.074;2023-04-04T11:52:07;95540.97;;;6.25;100.00
33859;BME280;20156;47.486;12.074;2023-04-04T11:54:36;95487.50;;;5.86;100.00
33859;BME280;20156;47.486;12.074;2023-04-04T11:57:05;95472.97;;;5.30;100.00
33859;BME280;20156;47.486;12.074;2023-04-04T11:59:31;95469.56;;;5.46;100.00
33859;BME280;20156;47.486;12.074;2023-04-04T12:01:58;95474.22;;;5.58;100.00
33859;BME280;20156;47.486;12.074;2023-04-04T12:04:24;95471.56;;;6.22;100.00
33859;BME280;20156;47.486;12.074;2023-04-04T12:06:52;95430.13;;;5.76;100.00
33859;BME280;20156;47.486;12.074;2023-04-04T12:09:19;95441.19;;;5.46;100.00
33859;BME280;20156;47.486;12.074;2023-04-04T12:11:48;95456.34;;;5.88;100.00
33859;BME280;20156;47.486;12.074;2023-04-04T12:14:18;95422.75;;;5.65;100.00
33859;BME280;20156;47.486;12.074;2023-04-04T12:16:47;95427.66;;;6.22;100.00
33859;BME280;20156;47.486;12.074;2023-04-04T12:19:12;95371.97;;;5.96;100.00
33859;BME280;20156;47.486;12.074;2023-04-04T12:21:38;95357.97;;;5.91;100.00
33859;BME280;20156;47.486;12.074;2023-04-04T12:24:06;95362.69;;;6.10;100.00
33859;BME280;20156;47.486;12.074;2023-04-04T12:26:32;95354.06;;;5.87;100.00
33859;BME280;20156;47.486;12.074;2023-04-04T12:28:59;95397.72;;;6.04;100.00
33859;BME280;20156;47.486;12.074;2023-04-04T12:31:25;95373.28;;;6.38;100.00
33859;BME280;20156;47.486;12.074;2023-04-04T12:33:51;95352.28;;;5.87;100.00
33859;BME280;20156;47.486;12.074;2023-04-04T12:36:17;95352.00;;;6.13;100.00
33859;BME280;20156;47.486;12.074;2023-04-04T12:39:00;95340.78;;;6.06;100.00
33859;BME280;20156;47.486;12.074;2023-04-04T12:41:26;95334.03;;;6.20;100.00
33859;BME280;20156;47.486;12.074;2023-04-04T12:44:00;95332.31;;;6.35;100.00
33859;BME280;20156;47.486;12.074;2023-04-04T12:46:27;95294.84;;;6.16;100.00
33859;BME280;20156;47.486;12.074;2023-04-04T12:48:53;95297.38;;;6.01;100.00
33859;BME280;20156;47.486;12.074;2023-04-04T12:51:19;95288.47;;;6.27;100.00
33859;BME280;20156;47.486;12.074;2023-04-04T12:53:51;95275.56;;;6.27;100.00
33859;BME280;20156;47.486;12.074;2023-04-04T12:56:17;95275.16;;;6.68;100.00
33859;BME280;20156;47.486;12.074;2023-04-04T12:58:46;95273.28;;;6.61;100.00
33859;BME280;20156;47.486;12.074;2023-04-04T13:01:15;95275.06;;;6.61;100.00
33859;BME280;20156;47.486;12.074;2023-04-04T13:03:43;95273.00;;;6.42;100.00
33859;BME280;20156;47.486;12.074;2023-04-04T13:06:16;95253.59;;;6.75;100.00
33859;BME280;20156;47.486;12.074;2023-04-04T13:08:52;95244.16;;;6.82;100.00
33859;BME280;20156;47.486;12.074;2023-04-04T13:11:18;95241.19;;;6.85;100.00